Time;durP1;ratioP1;P1;durP2;ratioP2;P2;SDS_P1;SDS_P2;PMS_P1;PMS_P2;Temp;Humidity;BMP_temperature;BMP_pressure;BME280_temperature;BME280_humidity;BME280_pressure;Samples;Min_cycle;Max_cycle;Signal;HPM_P1;HPM_P2
2021/08/21 09:11:00;;;;;;;5.80;2.15;;;;;;;24.55;48.93;99076.25;5062785;27;20415;-46
2021/08/21 09:13:27;;;;;;;7.13;2.45;;;;;;;24.52;49.56;99073.06;5050582;28;20131;-48
2021/08/21 09:15:55;;;;;;;4.28;1.90;;;;;;;24.56;49.56;99072.59;5066792;28;20094;-47
2021/08/21 09:18:26;;;;;;;11.50;2.40;;;;;;;24.49;49.45;99055.63;5065466;28;20820;-46
2021/08/21 09:21:00;;;;;;;3.60;1.90;;;;;;;24.58;49.25;99060.00;5062914;28;20033;-49
2021/08/21 09:23:43;;;;;;;4.53;2.47;;;;;;;24.67;48.85;99071.50;5068332;28;20075;-46
2021/08/21 09:26:25;;;;;;;4.63;2.13;;;;;;;24.73;49.02;99062.91;5065696;28;20033;-47
2021/08/21 09:28:51;;;;;;;6.25;2.53;;;;;;;24.74;49.02;99070.72;5064797;28;21514;-47
2021/08/21 09:31:19;;;;;;;6.35;2.30;;;;;;;24.73;49.03;99081.50;5061681;28;20067;-46
2021/08/21 09:33:56;;;;;;;10.00;2.50;;;;;;;24.67;48.87;99082.13;5066372;28;20044;-49
2021/08/21 09:36:41;;;;;;;4.50;1.73;;;;;;;24.63;48.98;99091.41;5062965;28;20040;-47
2021/08/21 09:39:09;;;;;;;6.65;2.75;;;;;;;24.63;49.29;99092.25;5065239;28;20485;-46
2021/08/21 09:41:54;;;;;;;5.68;2.20;;;;;;;24.64;49.11;99085.97;5063932;28;20188;-46
2021/08/21 09:44:31;;;;;;;6.30;2.90;;;;;;;24.69;48.51;99093.47;5062136;28;20051;-46
2021/08/21 09:47:15;;;;;;;6.32;2.13;;;;;;;24.75;48.59;99098.16;5061794;28;20047;-49
2021/08/21 09:49:43;;;;;;;4.47;2.67;;;;;;;24.73;48.75;99090.31;5051520;28;20041;-48
2021/08/21 09:52:11;;;;;;;5.82;3.33;;;;;;;24.80;48.95;99093.19;5042506;28;20095;-48
2021/08/21 09:54:38;;;;;;;4.75;2.95;;;;;;;24.85;48.76;99099.72;5058771;28;20123;-48
2021/08/21 09:57:04;;;;;;;5.88;2.80;;;;;;;24.91;48.45;99097.44;5057299;28;20174;-46
2021/08/21 09:59:38;;;;;;;10.52;4.18;;;;;;;24.99;48.71;99094.81;5056900;28;20036;-49
2021/08/21 10:02:15;;;;;;;7.20;2.45;;;;;;;25.00;48.40;99107.97;5049440;28;20037;-49
2021/08/21 10:04:42;;;;;;;8.27;2.33;;;;;;;24.99;48.08;99097.47;5054546;28;20044;-48
2021/08/21 10:07:12;;;;;;;5.10;2.10;;;;;;;24.92;47.98;99099.94;5050103;28;20131;-45
2021/08/21 10:09:39;;;;;;;7.47;3.13;;;;;;;24.82;48.00;99102.66;5056443;28;20152;-49
2021/08/21 10:12:07;;;;;;;9.50;2.80;;;;;;;24.74;48.54;99102.63;5053353;28;20032;-46
2021/08/21 10:14:33;;;;;;;6.03;2.10;;;;;;;24.73;48.39;99108.09;5057639;28;20133;-46
2021/08/21 10:17:00;;;;;;;6.55;2.50;;;;;;;24.71;47.82;99104.75;5058549;28;20087;-51
2021/08/21 10:19:27;;;;;;;8.60;2.60;;;;;;;24.72;47.79;99101.09;5052229;28;20099;-51
2021/08/21 10:21:55;;;;;;;7.82;2.60;;;;;;;24.79;48.09;99100.34;5041001;28;20516;-51
2021/08/21 10:24:40;;;;;;;9.20;3.08;;;;;;;;;;5035179;28;20040;-51
2021/08/21 10:27:37;;;;;;;12.65;3.72;;;;;;;24.87;47.33;99096.88;5034268;28;20052;-52
2021/08/21 10:30:25;;;;;;;6.53;2.70;;;;;;;24.81;47.49;99087.69;5032493;28;20094;-49
2021/08/21 10:33:01;;;;;;;7.35;2.92;;;;;;;24.72;47.69;99093.97;5035996;28;20050;-47
2021/08/21 10:35:55;;;;;;;8.25;2.50;;;;;;;24.63;48.65;99096.75;5038436;28;20037;-50
2021/08/21 10:38:32;;;;;;;9.20;3.22;;;;;;;24.49;48.34;99092.84;5034260;28;20037;-48
2021/08/21 10:41:24;;;;;;;8.25;2.50;;;;;;;24.39;49.15;99102.72;5035539;28;20480;-46
2021/08/21 10:43:55;;;;;;;9.88;3.38;;;;;;;24.37;48.91;99094.91;5034946;28;20123;-49
2021/08/21 10:46:29;;;;;;;5.65;1.75;;;;;;;24.37;48.45;99105.53;5045486;28;20087;-52
2021/08/21 10:48:57;;;;;;;7.05;2.42;;;;;;;24.42;48.81;99105.06;5039344;28;20056;-52
2021/08/21 10:51:49;;;;;;;9.27;3.28;;;;;;;24.55;48.88;99100.16;5035871;28;20127;-52
2021/08/21 10:54:27;;;;;;;8.43;2.38;;;;;;;24.65;48.10;99092.91;5066536;28;20091;-48
2021/08/21 10:56:55;;;;;;;6.85;2.67;;;;;;;24.70;47.68;99095.13;5040651;28;20075;-49
2021/08/21 10:59:40;;;;;;;6.22;2.22;;;;;;;24.74;47.20;99094.66;5032391;28;20049;-48
2021/08/21 11:02:21;;;;;;;9.32;3.72;;;;;;;24.90;46.77;99091.28;5037164;28;20179;-51
2021/08/21 11:04:47;;;;;;;7.85;2.97;;;;;;;25.00;46.08;99089.34;5043534;28;20488;-47
2021/08/21 11:07:41;;;;;;;6.07;2.00;;;;;;;25.04;46.07;99098.69;5045369;28;20042;-51
2021/08/21 11:10:23;;;;;;;11.15;1.98;;;;;;;25.02;45.40;99094.53;5033930;28;20543;-51
2021/08/21 11:12:52;;;;;;;5.82;2.05;;;;;;;25.00;45.40;99107.13;5044868;28;20041;-53
2021/08/21 11:15:23;;;;;;;8.82;2.58;;;;;;;25.00;45.29;99097.34;5055699;28;20050;-49
2021/08/21 11:17:49;;;;;;;7.07;3.50;;;;;;;25.00;44.97;99100.00;5070033;28;20491;-51
2021/08/21 11:20:28;;;;;;;15.43;4.72;;;;;;;24.92;45.42;99091.13;5039410;28;20089;-49
2021/08/21 11:23:06;;;;;;;19.95;7.60;;;;;;;24.81;45.41;99092.19;5039103;28;20041;-49
2021/08/21 11:25:43;;;;;;;4.43;1.80;;;;;;;24.65;45.23;99100.91;5054301;28;20037;-49
2021/08/21 11:28:21;;;;;;;6.57;2.08;;;;;;;24.44;45.69;99089.81;5033353;28;20037;-51
2021/08/21 11:31:07;;;;;;;8.50;2.63;;;;;;;24.35;46.37;99086.25;5042652;28;20049;-51
2021/08/21 11:33:33;;;;;;;6.20;2.20;;;;;;;24.23;46.52;99073.38;5040324;28;20156;-49
2021/08/21 11:36:00;;;;;;;8.05;3.03;;;;;;;24.27;46.71;99102.13;5064970;28;20068;-48
2021/08/21 11:38:29;;;;;;;23.65;4.93;;;;;;;24.23;47.06;99099.94;5037726;28;20048;-49
2021/08/21 11:41:00;;;;;;;9.20;3.00;;;;;;;24.18;47.80;99102.22;5040018;28;20090;-49
2021/08/21 11:43:31;;;;;;;9.00;2.63;;;;;;;24.13;48.17;99109.78;5068781;28;20041;-47
2021/08/21 11:45:59;;;;;;;6.55;2.15;;;;;;;24.11;48.31;99111.75;5042571;28;20036;-47
2021/08/21 11:48:29;;;;;;;4.93;2.22;;;;;;;24.13;48.58;99104.47;5041609;28;20056;-49
2021/08/21 11:50:56;;;;;;;8.05;2.53;;;;;;;24.22;48.71;99112.38;5043467;28;20076;-47
2021/08/21 11:53:24;;;;;;;6.95;2.10;;;;;;;24.34;48.72;99111.13;5043376;28;20048;-46
2021/08/21 11:55:56;;;;;;;12.60;2.67;;;;;;;24.48;48.36;99104.44;5044395;28;20045;-49
2021/08/21 11:58:33;;;;;;;7.90;2.83;;;;;;;24.56;48.24;99107.16;5036301;28;20126;-49
2021/08/21 12:01:04;;;;;;;2.05;1.50;;;;;;;24.61;48.14;99094.22;5043399;28;20673;-51
2021/08/21 12:06:30;;;;;;;4.60;1.95;;;;;;;24.47;47.39;99097.47;5025989;28;20122;-48
2021/08/21 12:09:13;;;;;;;4.32;1.90;;;;;;;24.24;47.44;99086.47;5046899;28;20132;-52
2021/08/21 12:11:42;;;;;;;10.15;3.13;;;;;;;24.23;47.94;99105.25;5061374;28;20135;-53
2021/08/21 12:14:08;;;;;;;16.17;3.22;;;;;;;24.12;48.40;99094.81;5055157;28;20068;-50
2021/08/21 12:16:34;;;;;;;8.38;2.47;;;;;;;24.06;48.57;99102.41;5042621;28;20115;-53
2021/08/21 12:19:01;;;;;;;5.55;2.15;;;;;;;24.02;48.69;99109.00;5048965;28;20479;-51
2021/08/21 12:21:27;;;;;;;17.60;3.92;;;;;;;24.02;49.18;99116.16;5049983;28;20048;-49
2021/08/21 12:23:54;;;;;;;15.38;2.90;;;;;;;24.06;49.29;99110.38;5048917;28;20068;-50
2021/08/21 12:26:32;;;;;;;21.48;3.88;;;;;;;24.07;49.35;99116.53;5042093;28;20041;-49
2021/08/21 12:28:58;;;;;;;10.00;2.37;;;;;;;23.97;49.65;99091.88;5030246;28;20045;-49
2021/08/21 12:31:38;;;;;;;11.40;2.20;;;;;;;24.26;49.89;99116.41;5048327;28;20114;-52
2021/08/21 12:34:07;;;;;;;6.95;2.30;;;;;;;24.33;49.86;99106.00;5049252;28;20040;-51
2021/08/21 12:36:41;;;;;;;8.00;2.00;;;;;;;24.29;50.09;99109.91;5044653;28;20044;-52
2021/08/21 12:39:11;;;;;;;10.52;2.80;;;;;;;24.19;50.37;99104.69;5036695;28;20063;-54
2021/08/21 12:41:58;;;;;;;14.35;6.95;;;;;;;24.16;50.23;99106.81;5044443;28;20520;-54
2021/08/21 12:44:37;;;;;;;9.63;2.70;;;;;;;24.06;50.61;99099.75;5028294;28;20033;-48
2021/08/21 12:47:11;;;;;;;7.05;2.15;;;;;;;24.01;50.88;99104.69;5034888;28;20044;-51
2021/08/21 12:49:38;;;;;;;17.88;3.15;;;;;;;23.99;51.10;99108.47;5034195;28;20045;-50
2021/08/21 12:52:10;;;;;;;7.63;1.98;;;;;;;23.87;51.25;99091.09;5037464;28;20532;-51
2021/08/21 12:54:39;;;;;;;14.60;3.33;;;;;;;23.97;51.38;99099.84;5029003;28;20690;-49
2021/08/21 12:57:19;;;;;;;5.10;2.28;;;;;;;23.91;51.53;99106.59;5049686;28;20037;-52
2021/08/21 12:59:49;;;;;;;12.80;2.97;;;;;;;23.82;51.86;99109.28;5037232;28;20040;-63
2021/08/21 13:02:17;;;;;;;10.35;2.30;;;;;;;23.70;51.94;99111.34;5037450;28;20128;-61
2021/08/21 13:05:03;;;;;;;7.10;2.95;;;;;;;23.63;52.01;99120.88;5053703;28;20526;-61
2021/08/21 13:07:41;;;;;;;5.43;2.53;;;;;;;23.55;51.75;99121.59;5041259;28;20057;-62
2021/08/21 13:10:08;;;;;;;5.95;1.98;;;;;;;23.49;51.85;99116.09;5049399;28;20080;-61
2021/08/21 13:12:33;;;;;;;11.63;4.07;;;;;;;23.41;51.79;99124.75;5044467;28;20045;-66
2021/08/21 13:15:00;;;;;;;8.55;3.55;;;;;;;23.33;52.10;99126.47;5038748;28;20401;-69
2021/08/21 13:17:26;;;;;;;13.60;3.00;;;;;;;23.28;52.44;99131.38;5041009;28;20044;-67
2021/08/21 13:19:51;;;;;;;4.68;2.20;;;;;;;23.22;52.35;99133.63;5031515;28;20033;-65
2021/08/21 13:22:17;;;;;;;6.50;2.50;;;;;;;23.17;52.44;99133.22;5029359;28;20421;-65
2021/08/21 13:24:42;;;;;;;7.88;2.53;;;;;;;23.17;52.73;99140.34;5029973;28;20124;-68
2021/08/21 13:27:08;;;;;;;7.93;3.50;;;;;;;23.12;52.96;99130.19;5032682;28;20051;-64
2021/08/21 13:29:34;;;;;;;8.23;2.95;;;;;;;23.13;53.19;99134.47;5049767;28;20083;-63
2021/08/21 13:32:00;;;;;;;9.75;3.20;;;;;;;23.12;53.71;99124.88;5048068;28;20048;-66
2021/08/21 13:34:25;;;;;;;7.60;2.67;;;;;;;23.09;53.61;99111.06;5028303;28;20033;-64
2021/08/21 13:36:51;;;;;;;27.50;15.27;;;;;;;23.08;53.95;99112.88;5036969;28;20033;-73
2021/08/21 13:39:17;;;;;;;12.18;5.03;;;;;;;23.10;54.25;99112.72;5040692;28;20037;-64
2021/08/21 13:41:43;;;;;;;7.68;3.13;;;;;;;23.10;54.08;99107.44;5030249;28;20472;-65
2021/08/21 13:44:08;;;;;;;8.40;3.20;;;;;;;23.14;53.97;99098.19;5047545;28;20073;-80
2021/08/21 13:46:35;;;;;;;8.60;3.67;;;;;;;23.14;53.96;99107.00;5048051;28;20520;-72
2021/08/21 13:49:03;;;;;;;8.88;2.63;;;;;;;23.12;54.05;99105.47;5038502;28;20037;-67
2021/08/21 13:51:29;;;;;;;10.82;4.95;;;;;;;23.10;54.19;99112.72;5038076;28;20264;-69
2021/08/21 13:53:54;;;;;;;6.10;2.72;;;;;;;23.02;54.48;99105.53;5049229;28;20037;-72
2021/08/21 13:56:20;;;;;;;10.27;3.00;;;;;;;23.02;54.77;99102.88;5040203;28;20095;-75
2021/08/21 13:58:46;;;;;;;6.15;2.95;;;;;;;22.93;54.72;99108.19;5053244;28;20048;-73
2021/08/21 14:01:12;;;;;;;16.90;5.22;;;;;;;22.87;54.95;99114.09;5051723;28;20127;-72
2021/08/21 14:03:37;;;;;;;7.65;3.17;;;;;;;22.73;54.92;99099.47;5052558;28;20037;-69
2021/08/21 14:06:06;;;;;;;16.88;5.32;;;;;;;22.69;55.08;99095.41;5040201;28;20127;-75
2021/08/21 14:08:32;;;;;;;20.38;4.32;;;;;;;22.69;54.94;99093.59;5031345;28;20049;-63
2021/08/21 14:10:58;;;;;;;16.35;5.75;;;;;;;22.73;54.17;99124.16;5035202;28;20663;-62
2021/08/21 14:13:23;;;;;;;21.63;7.13;;;;;;;22.67;53.55;99123.84;5041651;28;20048;-66
2021/08/21 14:15:49;;;;;;;8.80;2.25;;;;;;;22.60;53.33;99120.97;5048184;28;20483;-68
2021/08/21 14:18:15;;;;;;;9.25;4.13;;;;;;;22.55;52.98;99122.34;5051558;28;20063;-67
2021/08/21 14:20:41;;;;;;;7.55;2.15;;;;;;;22.52;52.96;99126.13;5050790;28;20041;-62
2021/08/21 14:23:08;;;;;;;7.65;2.90;;;;;;;22.46;52.88;99129.31;5028322;28;20060;-63
2021/08/21 14:25:34;;;;;;;6.82;2.38;;;;;;;22.42;52.98;99121.81;5047990;28;20131;-62
2021/08/21 14:28:00;;;;;;;13.30;4.90;;;;;;;22.29;53.00;99108.88;5046712;28;20049;-63
2021/08/21 14:30:25;;;;;;;7.68;2.83;;;;;;;22.31;53.10;99115.69;5034111;28;20472;-67
2021/08/21 14:32:52;;;;;;;8.27;3.25;;;;;;;22.31;53.14;99106.91;5047330;28;20135;-67
2021/08/21 14:35:18;;;;;;;15.95;5.35;;;;;;;22.27;53.10;99106.34;5036193;28;20461;-65
2021/08/21 14:37:43;;;;;;;19.10;4.53;;;;;;;22.25;53.25;99107.44;5033804;28;20037;-63
2021/08/21 14:40:10;;;;;;;11.95;3.60;;;;;;;22.22;53.21;99098.00;5036420;28;20060;-62
2021/08/21 14:42:35;;;;;;;9.48;3.38;;;;;;;22.18;53.40;99093.97;5050763;28;20048;-63
2021/08/21 14:45:01;;;;;;;19.25;6.03;;;;;;;22.16;53.33;99085.31;5049076;28;20427;-65
2021/08/21 14:47:27;;;;;;;9.05;3.55;;;;;;;22.00;53.18;99074.44;5051357;28;20095;-67
2021/08/21 14:49:53;;;;;;;12.13;3.70;;;;;;;21.94;53.00;99081.13;5049089;28;20045;-66
2021/08/21 14:52:19;;;;;;;33.97;7.82;;;;;;;21.96;52.96;99081.00;5045089;28;20053;-62
2021/08/21 14:54:45;;;;;;;10.75;3.28;;;;;;;21.90;53.01;99084.16;5051533;28;20123;-66
2021/08/21 14:57:10;;;;;;;26.48;6.13;;;;;;;21.82;53.12;99086.69;5046346;28;20040;-75
2021/08/21 14:59:36;;;;;;;21.33;6.30;;;;;;;21.76;53.01;99093.34;5044108;28;20038;-70
2021/08/21 15:02:02;;;;;;;16.45;6.72;;;;;;;21.60;52.88;99074.53;5047023;28;20044;-73
2021/08/21 15:04:31;;;;;;;5.85;2.70;;;;;;;21.68;52.78;99087.06;5048705;28;20048;-62
2021/08/21 15:06:56;;;;;;;12.52;4.13;;;;;;;21.68;52.65;99084.41;5040599;28;20037;-62
2021/08/21 15:09:23;;;;;;;12.93;2.78;;;;;;;21.59;52.09;99072.03;5048636;28;20551;-62
2021/08/21 15:11:48;;;;;;;7.53;3.22;;;;;;;21.67;52.03;99090.72;5049429;28;20053;-71
2021/08/21 15:14:14;;;;;;;6.50;2.50;;;;;;;21.63;52.09;99084.81;5035736;28;20041;-71
2021/08/21 15:16:42;;;;;;;4.53;2.47;;;;;;;21.58;51.72;99076.47;5042998;28;20424;-72
2021/08/21 15:19:09;;;;;;;5.47;2.30;;;;;;;21.47;51.67;99066.84;5049663;28;20033;-71
2021/08/21 15:21:35;;;;;;;5.18;2.08;;;;;;;21.50;51.75;99078.97;5049069;28;20040;-65
2021/08/21 15:24:01;;;;;;;11.75;3.80;;;;;;;21.45;52.09;99079.38;5045099;28;20090;-71
2021/08/21 15:26:26;;;;;;;9.27;2.22;;;;;;;21.36;52.51;99076.69;5046663;28;20079;-66
2021/08/21 15:28:53;;;;;;;4.75;2.10;;;;;;;21.41;52.90;99091.19;5048885;28;20041;-67
2021/08/21 15:31:19;;;;;;;11.88;2.38;;;;;;;21.35;52.89;99098.84;5050535;28;20044;-69
2021/08/21 15:33:44;;;;;;;9.20;2.75;;;;;;;21.17;53.38;99088.06;5047208;28;20067;-69
2021/08/21 15:36:10;;;;;;;6.68;2.72;;;;;;;21.23;53.71;99106.03;5042673;28;20037;-68
2021/08/21 15:38:37;;;;;;;9.18;3.03;;;;;;;21.19;54.56;99106.44;5039768;28;20029;-65
2021/08/21 15:41:03;;;;;;;10.75;2.70;;;;;;;21.04;55.03;99093.53;5038264;28;20466;-66
2021/08/21 15:43:30;;;;;;;10.18;3.53;;;;;;;21.09;55.50;99101.09;5036451;28;20042;-69
2021/08/21 15:45:55;;;;;;;6.85;3.05;;;;;;;21.07;55.71;99109.16;5034414;28;20639;-63
2021/08/21 15:48:25;;;;;;;10.20;3.90;;;;;;;21.03;55.78;99113.03;5063665;28;20053;-67
2021/08/21 15:50:52;;;;;;;7.97;3.00;;;;;;;21.00;56.48;99104.50;5041189;28;20033;-63
2021/08/21 15:53:24;;;;;;;9.65;3.50;;;;;;;20.97;56.69;99100.34;5040274;28;20063;-63
2021/08/21 15:55:50;;;;;;;8.75;3.22;;;;;;;20.93;56.81;99108.66;5049218;28;20040;-58
2021/08/21 15:58:17;;;;;;;9.40;3.60;;;;;;;20.87;57.08;99102.09;5037811;28;20128;-76
2021/08/21 16:00:44;;;;;;;9.00;3.53;;;;;;;20.82;57.36;99096.38;5037176;28;20041;-62
2021/08/21 16:03:10;;;;;;;11.35;3.75;;;;;;;20.73;57.58;99081.28;5037242;28;20516;-63
2021/08/21 16:05:35;;;;;;;8.73;3.83;;;;;;;20.77;57.75;99095.09;5039590;28;20053;-71
2021/08/21 16:08:01;;;;;;;8.82;3.53;;;;;;;20.73;57.90;99095.34;5041185;28;20133;-69
2021/08/21 16:10:27;;;;;;;10.48;3.60;;;;;;;20.61;57.96;99080.56;5038435;28;20049;-68
2021/08/21 16:12:53;;;;;;;8.63;3.42;;;;;;;20.66;58.52;99086.28;5031017;28;20509;-68
2021/08/21 16:15:19;;;;;;;10.63;3.88;;;;;;;20.63;58.76;99088.31;5033596;28;20041;-63
2021/08/21 16:17:44;;;;;;;12.55;3.38;;;;;;;20.61;59.03;99074.44;5036450;28;20068;-65
2021/08/21 16:20:11;;;;;;;12.68;3.05;;;;;;;20.59;59.11;99074.56;5033963;28;20041;-63
2021/08/21 16:22:37;;;;;;;12.95;3.45;;;;;;;20.57;59.40;99075.63;5038004;28;20529;-65
2021/08/21 16:25:04;;;;;;;7.72;3.40;;;;;;;20.54;59.57;99068.81;5034525;28;20079;-66
2021/08/21 16:27:33;;;;;;;9.82;3.42;;;;;;;20.48;59.81;99069.34;5057428;28;20405;-69
2021/08/21 16:29:59;;;;;;;8.52;4.13;;;;;;;20.43;59.69;99066.25;5033532;28;20133;-68
2021/08/21 16:32:25;;;;;;;17.75;4.40;;;;;;;20.30;59.94;99061.16;5036029;28;20199;-63
2021/08/21 16:34:51;;;;;;;10.32;3.22;;;;;;;20.34;59.98;99082.03;5036066;28;20139;-63
2021/08/21 16:37:17;;;;;;;8.32;3.80;;;;;;;20.25;60.04;99087.06;5038350;28;20052;-63
2021/08/21 16:39:43;;;;;;;12.45;4.20;;;;;;;20.33;60.36;99102.31;5039048;28;20144;-64
2021/08/21 16:42:10;;;;;;;15.05;4.38;;;;;;;20.34;60.67;99103.16;5047134;28;20052;-64
2021/08/21 16:44:35;;;;;;;10.88;5.30;;;;;;;20.33;60.80;99104.13;5045467;28;20133;-64
2021/08/21 16:47:01;;;;;;;12.43;4.70;;;;;;;20.29;61.06;99099.09;5049005;28;20813;-66
2021/08/21 16:49:27;;;;;;;12.52;5.15;;;;;;;20.20;61.30;99085.81;5048819;28;20040;-65
2021/08/21 16:51:53;;;;;;;12.25;4.63;;;;;;;20.24;61.40;99106.53;5046452;28;20116;-64
2021/08/21 16:54:18;;;;;;;13.32;4.20;;;;;;;20.19;61.22;99099.97;5044608;28;20037;-64
2021/08/21 16:56:44;;;;;;;14.20;4.47;;;;;;;20.21;61.84;99105.94;5044183;28;20049;-63
2021/08/21 16:59:10;;;;;;;12.00;4.43;;;;;;;20.21;62.21;99106.78;5045473;28;20032;-62
2021/08/21 17:01:36;;;;;;;10.73;3.88;;;;;;;20.21;62.36;99108.59;5045150;28;20478;-60
2021/08/21 17:04:01;;;;;;;10.13;3.97;;;;;;;20.20;62.33;99099.81;5048029;28;20064;-61
2021/08/21 17:06:28;;;;;;;9.48;3.80;;;;;;;20.06;62.52;99076.38;5045197;28;20067;-65
2021/08/21 17:08:53;;;;;;;10.55;3.85;;;;;;;20.20;62.45;99099.00;5048821;28;20080;-62
2021/08/21 17:11:19;;;;;;;8.23;3.03;;;;;;;20.20;61.76;99099.00;5049202;28;20487;-61
2021/08/21 17:13:45;;;;;;;7.78;3.08;;;;;;;20.14;60.78;99089.81;5035972;28;20042;-61
2021/08/21 17:16:10;;;;;;;7.18;3.30;;;;;;;20.10;60.30;99087.50;5033650;28;20091;-60
2021/08/21 17:18:36;;;;;;;6.13;3.13;;;;;;;20.11;60.29;99091.84;5027665;28;20132;-60
2021/08/21 17:21:05;;;;;;;9.60;4.28;;;;;;;20.10;59.99;99103.34;5026597;28;20107;-61
2021/08/21 17:23:32;;;;;;;6.25;2.78;;;;;;;20.08;59.34;99103.50;5027537;28;20466;-60
2021/08/21 17:25:57;;;;;;;7.80;3.00;;;;;;;20.08;59.34;99095.59;5029946;28;20049;-61
2021/08/21 17:28:24;;;;;;;8.38;3.22;;;;;;;19.97;59.01;99079.78;5027911;28;20037;-60
2021/08/21 17:30:51;;;;;;;9.35;2.78;;;;;;;20.08;58.67;99086.81;5012042;28;20045;-61
2021/08/21 17:33:17;;;;;;;6.93;2.80;;;;;;;19.99;58.43;99077.03;5033434;28;20041;-61
2021/08/21 17:35:42;;;;;;;7.57;2.55;;;;;;;20.03;57.87;99086.38;5032357;28;20099;-60
2021/08/21 17:38:08;;;;;;;13.63;3.55;;;;;;;20.02;57.81;99080.25;5033399;28;20393;-60
2021/08/21 17:40:34;;;;;;;6.97;3.50;;;;;;;20.05;57.98;99081.78;5033351;28;20042;-60
2021/08/21 17:42:59;;;;;;;6.72;3.15;;;;;;;20.05;57.90;99074.72;5041283;28;20091;-60
2021/08/21 17:45:25;;;;;;;5.63;3.40;;;;;;;20.05;57.83;99076.50;5038103;28;20420;-59
2021/08/21 17:47:51;;;;;;;13.07;3.35;;;;;;;19.96;58.54;99062.28;5041371;28;20424;-60
2021/08/21 17:50:17;;;;;;;13.93;3.92;;;;;;;19.93;58.71;99057.28;5040660;28;20095;-61
2021/08/21 17:52:43;;;;;;;15.73;3.60;;;;;;;19.93;59.27;99065.19;5036135;28;20045;-62
2021/08/21 17:55:09;;;;;;;10.20;3.75;;;;;;;20.02;59.53;99076.78;5040699;28;20184;-62
2021/08/21 17:57:35;;;;;;;14.85;4.50;;;;;;;20.03;60.41;99087.22;5037907;28;20079;-59
2021/08/21 18:00:01;;;;;;;10.77;4.40;;;;;;;20.00;60.96;99078.69;5050253;28;20040;-53
2021/08/21 18:02:35;;;;;;;12.13;4.53;;;;;;;19.88;61.70;99059.44;5049086;28;20041;-61
2021/08/21 18:05:01;;;;;;;11.57;5.40;;;;;;;19.95;62.09;99072.94;5048135;28;20045;-60
2021/08/21 18:07:26;;;;;;;13.20;4.72;;;;;;;19.91;62.50;99067.09;5044670;28;20455;-60
2021/08/21 18:09:52;;;;;;;13.27;5.20;;;;;;;19.88;62.95;99064.72;5045083;28;20065;-63
2021/08/21 18:12:18;;;;;;;12.55;5.00;;;;;;;19.85;63.31;99067.59;5048490;28;20037;-60
2021/08/21 18:14:44;;;;;;;12.82;5.03;;;;;;;19.82;63.52;99063.44;5046034;28;20036;-62
2021/08/21 18:17:10;;;;;;;16.02;5.57;;;;;;;19.83;63.84;99059.84;5042008;28;20086;-66
2021/08/21 18:19:36;;;;;;;11.40;4.93;;;;;;;19.82;64.06;99057.31;5044357;28;20041;-60
2021/08/21 18:22:02;;;;;;;11.40;5.25;;;;;;;19.79;64.28;99047.84;5050243;28;20044;-61
2021/08/21 18:24:29;;;;;;;12.93;5.13;;;;;;;19.77;64.65;99043.66;5047090;28;20170;-61
2021/08/21 18:26:55;;;;;;;12.25;4.90;;;;;;;19.71;65.13;99044.16;5051869;28;20036;-62
2021/08/21 18:29:23;;;;;;;9.50;4.63;;;;;;;19.67;65.72;99048.03;5048971;28;20048;-60
2021/08/21 18:31:49;;;;;;;9.60;4.80;;;;;;;19.64;66.28;99050.91;5047294;28;20109;-64
2021/08/21 18:34:15;;;;;;;11.70;5.30;;;;;;;19.59;67.03;99051.28;5050351;28;20479;-64
2021/08/21 18:36:41;;;;;;;9.75;4.82;;;;;;;19.55;67.83;99049.84;5047594;28;20797;-65
2021/08/21 18:39:09;;;;;;;12.43;5.18;;;;;;;19.53;68.30;99059.66;5050392;28;20432;-62
2021/08/21 18:41:35;;;;;;;12.18;5.40;;;;;;;19.42;68.62;99052.59;5048261;28;20042;-64
2021/08/21 18:44:01;;;;;;;13.20;5.85;;;;;;;19.42;69.27;99055.22;5048821;28;20589;-63
2021/08/21 18:46:28;;;;;;;10.65;5.20;;;;;;;19.38;69.77;99050.34;5047191;28;20041;-63
2021/08/21 18:48:55;;;;;;;9.80;5.55;;;;;;;19.35;70.24;99053.22;5048847;28;20036;-65
2021/08/21 18:51:21;;;;;;;14.82;5.57;;;;;;;19.29;70.14;99053.72;5049516;28;20427;-65
2021/08/21 18:53:47;;;;;;;8.23;5.30;;;;;;;19.26;70.25;99061.88;5051106;28;20095;-70
2021/08/21 18:56:13;;;;;;;12.65;5.95;;;;;;;19.24;70.32;99063.78;5052085;28;20463;-63
2021/08/21 18:58:39;;;;;;;11.15;5.25;;;;;;;19.24;70.48;99061.16;5048409;28;20048;-64
2021/08/21 19:01:05;;;;;;;11.05;5.15;;;;;;;19.23;70.70;99068.22;5049291;28;20041;-69
2021/08/21 19:03:32;;;;;;;9.02;4.72;;;;;;;19.22;70.63;99068.34;5048533;28;20740;-63
2021/08/21 19:05:57;;;;;;;10.52;5.10;;;;;;;19.23;70.81;99076.13;5047715;28;20053;-58
2021/08/21 19:08:23;;;;;;;11.05;5.25;;;;;;;19.20;70.82;99057.09;5051933;28;20060;-63
2021/08/21 19:10:50;;;;;;;9.30;4.57;;;;;;;19.27;70.64;99074.06;5052618;28;20084;-59
2021/08/21 19:13:16;;;;;;;7.32;4.00;;;;;;;19.11;70.56;99050.75;5049079;28;20094;-60
2021/08/21 19:15:42;;;;;;;9.50;4.55;;;;;;;19.22;70.72;99068.34;5045211;28;20082;-66
2021/08/21 19:18:08;;;;;;;9.25;4.45;;;;;;;19.12;71.20;99051.56;5046505;28;20049;-71
2021/08/21 19:20:34;;;;;;;9.00;4.47;;;;;;;19.19;71.23;99069.44;5046065;28;20046;-73
2021/08/21 19:23:00;;;;;;;12.40;5.07;;;;;;;19.18;71.31;99075.66;5046431;28;20523;-68
2021/08/21 19:25:26;;;;;;;11.02;4.75;;;;;;;19.15;71.35;99068.00;5049843;28;20044;-58
2021/08/21 19:27:52;;;;;;;10.48;4.43;;;;;;;19.14;71.32;99076.88;5048941;28;20045;-60
2021/08/21 19:30:18;;;;;;;9.52;4.50;;;;;;;19.15;71.44;99069.81;5015706;28;20090;-61
2021/08/21 19:32:44;;;;;;;9.82;5.10;;;;;;;19.16;71.39;99063.53;5047983;28;20041;-59
2021/08/21 19:35:11;;;;;;;10.43;3.67;;;;;;;19.15;71.34;99065.38;5050540;28;20041;-60
2021/08/21 19:37:36;;;;;;;9.65;4.30;;;;;;;19.04;71.33;99053.03;5048750;28;20447;-57
2021/08/21 19:40:04;;;;;;;10.88;4.22;;;;;;;19.12;70.82;99068.22;5048515;28;20041;-60
2021/08/21 19:42:30;;;;;;;9.63;3.95;;;;;;;19.14;70.44;99065.47;5048101;28;20061;-60
2021/08/21 19:44:56;;;;;;;8.48;4.30;;;;;;;19.15;70.46;99069.81;5034803;28;20124;-59
2021/08/21 19:47:22;;;;;;;9.32;4.35;;;;;;;19.16;70.45;99067.03;5037928;28;20448;-60
2021/08/21 19:49:47;;;;;;;9.13;4.15;;;;;;;19.16;70.69;99069.66;5034711;28;20103;-60
2021/08/21 19:52:13;;;;;;;13.10;4.72;;;;;;;19.16;71.24;99071.44;5027814;28;20082;-59
2021/08/21 19:54:39;;;;;;;8.63;4.50;;;;;;;19.13;72.02;99075.19;5036392;28;20045;-60
2021/08/21 19:57:04;;;;;;;12.70;4.32;;;;;;;19.07;72.25;99070.41;5040253;28;20103;-60
2021/08/21 19:59:30;;;;;;;9.57;4.47;;;;;;;18.95;72.67;99063.44;5037420;28;20033;-60
2021/08/21 20:01:56;;;;;;;10.30;3.90;;;;;;;18.95;73.55;99066.06;5035638;28;20555;-60
2021/08/21 20:04:22;;;;;;;8.35;4.35;;;;;;;18.93;74.74;99071.50;5030856;28;20140;-60
2021/08/21 20:06:48;;;;;;;11.10;4.85;;;;;;;18.74;75.70;99033.50;5032654;28;20065;-60
2021/08/21 20:09:14;;;;;;;9.60;4.55;;;;;;;18.87;76.43;99064.06;5031773;28;20110;-61
2021/08/21 20:11:41;;;;;;;9.00;4.60;;;;;;;18.84;77.00;99058.22;5018757;28;20159;-62
2021/08/21 20:14:07;;;;;;;9.52;4.75;;;;;;;18.83;77.67;99059.16;5031686;28;20524;-62
2021/08/21 20:16:34;;;;;;;12.30;5.28;;;;;;;18.81;78.37;99055.78;5039651;28;20397;-61
2021/08/21 20:19:00;;;;;;;9.40;5.35;;;;;;;18.76;79.49;99043.00;5040719;28;20140;-60
2021/08/21 20:21:28;;;;;;;11.30;4.88;;;;;;;18.70;81.06;99042.63;5065531;28;20060;-59
2021/08/21 20:23:54;;;;;;;9.93;5.43;;;;;;;18.65;82.11;99044.78;5039370;28;20041;-60
2021/08/21 20:26:20;;;;;;;11.60;5.18;;;;;;;18.52;83.71;99034.34;5040557;28;20052;-59
2021/08/21 20:28:47;;;;;;;10.82;4.97;;;;;;;18.57;85.00;99050.66;5041097;28;20041;-60
2021/08/21 20:31:13;;;;;;;9.20;5.15;;;;;;;18.54;85.70;99049.06;5035939;28;20073;-60
2021/08/21 20:33:39;;;;;;;8.68;5.07;;;;;;;18.52;86.61;99053.59;5032079;28;20424;-60
2021/08/21 20:36:05;;;;;;;11.15;5.20;;;;;;;18.49;87.24;99052.97;5062396;28;20037;-59
2021/08/21 20:38:31;;;;;;;13.35;5.53;;;;;;;18.38;87.75;99032.75;5037322;28;20095;-59
2021/08/21 20:40:56;;;;;;;15.40;5.68;;;;;;;18.44;87.96;99041.97;5027415;28;20098;-60
2021/08/21 20:43:22;;;;;;;13.52;5.75;;;;;;;18.42;88.74;99039.44;5039104;28;20040;-60
2021/08/21 20:45:48;;;;;;;11.23;5.05;;;;;;;18.40;88.41;99032.63;5035413;28;20053;-60
2021/08/21 20:48:14;;;;;;;10.82;5.50;;;;;;;18.30;88.30;99014.09;5040118;28;20475;-60
2021/08/21 20:50:41;;;;;;;9.18;4.53;;;;;;;18.38;88.70;99019.59;5039539;28;20120;-60